Terminal Aerodrome Forecast
Issued by NWS Charleston, WV

Current Version | Previous Version | Text Only | Print | Product List | Glossary Off
Versions: 1 2 3 4 5 6 7 8 9 10 11 12 13 14 15 16 17 18 19 20 21 22 23 24 25 26 27 28 29

000
FTUS41 KRLX 190500
TAFEKN
TAF
KEKN 190539Z 1906/2006 00000KT 6SM BR BKN060
      TEMPO 1906/1908 4SM BR SCT060
     FM190800 00000KT 2SM BR SCT015 BKN050
      TEMPO 1908/1912 1/2SM FG VV001
     FM191300 00000KT 2SM BR SCT008
     FM191400 13003KT 4SM BR SCT025
     FM191500 13004KT P6SM SCT035
     FM191900 14006KT P6SM BKN035
     FM192200 14005KT P6SM SCT035
     FM200000 00000KT P6SM SCT040
     FM200300 15004KT 6SM BR FEW035=

USA.gov is the U.S. government's official web portal to all federal, state and local government web resources and services.